createdAt,value
2019-01-21T00:00:31.296Z,17.80
2019-01-21T00:01:31.280Z,17.70
2019-01-21T00:02:31.267Z,16.90
2019-01-21T00:03:31.252Z,17.70
2019-01-21T00:04:31.240Z,17.60
2019-01-21T00:05:31.231Z,18.10
2019-01-21T00:06:31.230Z,17.50
2019-01-21T00:07:31.199Z,17.80
2019-01-21T00:08:31.194Z,17.80
2019-01-21T00:09:31.175Z,17.90
2019-01-21T00:10:31.163Z,17.40
2019-01-21T00:11:31.158Z,17.20
2019-01-21T00:12:31.139Z,17.80
2019-01-21T00:13:31.122Z,18.20
2019-01-21T00:14:31.116Z,18.20
2019-01-21T00:15:31.099Z,17.70
2019-01-21T00:16:31.083Z,17.50
2019-01-21T00:17:31.067Z,18.40
2019-01-21T00:18:31.057Z,18.60
2019-01-21T00:19:31.042Z,19.10
2019-01-21T00:20:31.029Z,18.10
2019-01-21T00:21:31.017Z,18.90
2019-01-21T00:22:31.008Z,18.90
2019-01-21T00:23:30.991Z,19.30
2019-01-21T00:24:30.976Z,19.00
2019-01-21T00:25:30.965Z,19.50
2019-01-21T00:26:30.956Z,19.30
2019-01-21T00:27:30.941Z,19.10
2019-01-21T00:28:30.925Z,18.90
2019-01-21T00:29:30.911Z,18.90
2019-01-21T00:30:30.897Z,19.50
2019-01-21T00:31:30.886Z,19.30
2019-01-21T00:32:30.869Z,19.20
2019-01-21T00:33:30.860Z,19.10
2019-01-21T00:34:30.848Z,19.20
2019-01-21T00:35:30.834Z,19.70
2019-01-21T00:36:30.825Z,18.70
2019-01-21T00:37:30.808Z,19.10
2019-01-21T00:38:30.797Z,19.70
2019-01-21T00:39:30.778Z,19.80
2019-01-21T00:40:30.768Z,19.80
2019-01-21T00:41:30.761Z,19.20
2019-01-21T00:42:30.743Z,19.40
2019-01-21T00:43:30.730Z,18.40
2019-01-21T00:44:30.717Z,19.30
2019-01-21T00:45:30.703Z,19.10
2019-01-21T00:46:30.689Z,19.10
2019-01-21T00:47:30.677Z,19.20
2019-01-21T00:48:30.662Z,19.20
2019-01-21T00:49:30.650Z,19.70
2019-01-21T00:50:30.635Z,19.20
2019-01-21T00:51:30.622Z,19.00
2019-01-21T00:52:30.609Z,19.40
2019-01-21T00:53:30.595Z,19.70
2019-01-21T00:54:30.585Z,18.40
2019-01-21T00:55:30.569Z,20.00
2019-01-21T00:56:30.557Z,19.90
2019-01-21T00:57:30.541Z,19.20
2019-01-21T00:58:30.524Z,20.00
2019-01-21T00:59:30.516Z,19.30
2019-01-21T01:00:30.499Z,20.00
2019-01-21T01:01:30.488Z,19.60
2019-01-21T01:02:30.476Z,19.60
2019-01-21T01:03:30.461Z,19.80
2019-01-21T01:04:30.450Z,19.70
2019-01-21T01:05:30.438Z,19.30
2019-01-21T01:06:30.421Z,18.50
2019-01-21T01:07:30.408Z,19.20
2019-01-21T01:08:30.394Z,18.80
2019-01-21T01:09:30.380Z,19.50
2019-01-21T01:10:30.367Z,18.80
2019-01-21T01:11:30.353Z,19.40
2019-01-21T01:12:30.342Z,19.50
2019-01-21T01:13:30.327Z,19.50
2019-01-21T01:14:30.313Z,20.40
2019-01-21T01:15:30.302Z,19.60
2019-01-21T01:16:30.287Z,19.40
2019-01-21T01:17:33.385Z,19.80
2019-01-21T01:18:30.260Z,18.90
2019-01-21T01:19:30.247Z,18.90
2019-01-21T01:20:30.233Z,18.60
2019-01-21T01:21:30.219Z,18.30
2019-01-21T01:22:30.212Z,17.30
2019-01-21T01:23:30.193Z,18.00
2019-01-21T01:24:30.178Z,18.40
2019-01-21T01:25:30.166Z,18.60
2019-01-21T01:26:30.151Z,18.40
2019-01-21T01:27:30.137Z,19.10
2019-01-21T01:28:30.128Z,18.90
2019-01-21T01:29:30.115Z,19.00
2019-01-21T01:30:30.103Z,18.60
2019-01-21T01:31:30.082Z,19.60
2019-01-21T01:32:30.071Z,19.50
2019-01-21T01:33:30.055Z,17.90
2019-01-21T01:34:30.044Z,17.80
2019-01-21T01:35:30.029Z,18.50
2019-01-21T01:36:30.016Z,19.40
2019-01-21T01:37:29.998Z,19.40
2019-01-21T01:38:29.986Z,18.90
2019-01-21T01:39:29.973Z,18.20
2019-01-21T01:40:29.963Z,19.40
2019-01-21T01:41:29.945Z,18.80
2019-01-21T01:42:29.932Z,19.50
2019-01-21T01:43:29.919Z,19.40
2019-01-21T01:44:29.907Z,19.50
2019-01-21T01:45:30.792Z,19.50
2019-01-21T01:46:29.870Z,22.30
2019-01-21T01:47:30.790Z,21.00
2019-01-21T01:48:29.848Z,19.80
2019-01-21T01:49:29.836Z,21.20
2019-01-21T01:50:29.824Z,20.60
2019-01-21T01:51:29.807Z,21.20
2019-01-21T01:52:29.796Z,20.00
2019-01-21T01:53:29.779Z,19.40
2019-01-21T01:54:29.766Z,19.20
2019-01-21T01:55:29.750Z,18.40
2019-01-21T01:56:29.743Z,19.20
2019-01-21T01:57:29.734Z,18.30
2019-01-21T01:58:29.712Z,18.50
2019-01-21T01:59:29.699Z,19.30
2019-01-21T02:00:29.682Z,19.20
2019-01-21T02:01:29.669Z,19.10
2019-01-21T02:02:29.656Z,19.20
2019-01-21T02:03:29.642Z,18.80
2019-01-21T02:04:29.629Z,19.30
2019-01-21T02:05:29.621Z,19.20
2019-01-21T02:06:29.601Z,19.50
2019-01-21T02:07:29.587Z,18.40
2019-01-21T02:08:29.575Z,18.70
2019-01-21T02:09:29.560Z,19.60
2019-01-21T02:10:29.550Z,19.80
2019-01-21T02:11:29.533Z,20.50
2019-01-21T02:12:29.518Z,20.50
2019-01-21T02:13:29.506Z,21.50
2019-01-21T02:14:29.493Z,20.50
2019-01-21T02:15:29.481Z,20.60
2019-01-21T02:16:29.467Z,20.90
2019-01-21T02:17:29.448Z,20.50
2019-01-21T02:18:29.436Z,19.00
2019-01-21T02:19:29.422Z,20.60
2019-01-21T02:20:29.411Z,19.60
2019-01-21T02:21:29.397Z,19.20
2019-01-21T02:22:29.383Z,18.90
2019-01-21T02:23:29.368Z,19.40
2019-01-21T02:24:29.355Z,19.80
2019-01-21T02:25:29.341Z,20.50
2019-01-21T02:26:29.325Z,20.60
2019-01-21T02:27:29.313Z,20.40
2019-01-21T02:28:29.300Z,21.00
2019-01-21T02:29:29.285Z,20.10
2019-01-21T02:30:29.276Z,21.00
2019-01-21T02:31:29.259Z,21.30
2019-01-21T02:32:29.245Z,21.30
2019-01-21T02:33:29.233Z,21.10
2019-01-21T02:34:29.221Z,21.30
2019-01-21T02:35:29.204Z,21.20
2019-01-21T02:36:29.189Z,21.80
2019-01-21T02:37:29.177Z,21.60
2019-01-21T02:38:29.162Z,22.20
2019-01-21T02:39:29.148Z,21.00
2019-01-21T02:40:29.135Z,22.20
2019-01-21T02:41:29.121Z,22.40
2019-01-21T02:42:29.115Z,22.60
2019-01-21T02:43:29.096Z,23.30
2019-01-21T02:44:29.081Z,22.90
2019-01-21T02:45:29.067Z,22.60
2019-01-21T02:46:29.054Z,22.30
2019-01-21T02:47:29.043Z,24.10
2019-01-21T02:48:29.041Z,23.20
2019-01-21T02:49:29.012Z,22.60
2019-01-21T02:50:28.999Z,23.90
2019-01-21T02:51:28.985Z,22.00
2019-01-21T02:52:28.976Z,22.70
2019-01-21T02:53:28.958Z,22.00
2019-01-21T02:54:28.944Z,22.10
2019-01-21T02:55:28.931Z,23.20
2019-01-21T02:56:28.915Z,23.60
2019-01-21T02:57:28.904Z,24.10
2019-01-21T02:58:28.889Z,24.30
2019-01-21T02:59:28.873Z,23.80
2019-01-21T03:00:28.861Z,23.90
2019-01-21T03:01:28.849Z,23.60
2019-01-21T03:02:28.834Z,23.30
2019-01-21T03:03:28.818Z,24.10
2019-01-21T03:04:28.804Z,24.90
2019-01-21T03:05:28.792Z,25.00
2019-01-21T03:06:28.778Z,24.50
2019-01-21T03:07:28.763Z,24.50
2019-01-21T03:08:28.750Z,25.30
2019-01-21T03:09:28.737Z,25.40
2019-01-21T03:10:28.730Z,25.10
2019-01-21T03:11:28.708Z,25.90
2019-01-21T03:12:28.699Z,24.90
2019-01-21T03:13:28.683Z,25.60
2019-01-21T03:14:28.668Z,25.30
2019-01-21T03:15:28.659Z,25.50
2019-01-21T03:16:28.640Z,25.40
2019-01-21T03:17:28.626Z,24.30
2019-01-21T03:18:28.621Z,24.30
2019-01-21T03:19:28.596Z,24.90
2019-01-21T03:20:28.589Z,24.70
2019-01-21T03:21:28.575Z,23.50
2019-01-21T03:22:28.560Z,24.50
2019-01-21T03:23:28.544Z,25.30
2019-01-21T03:24:28.534Z,24.60
2019-01-21T03:25:28.521Z,23.90
2019-01-21T03:26:28.576Z,24.50
2019-01-21T03:27:28.490Z,24.10
2019-01-21T03:28:28.477Z,24.30
2019-01-21T03:29:28.467Z,23.10
2019-01-21T03:30:28.450Z,25.00
2019-01-21T03:31:28.447Z,24.60
2019-01-21T03:32:28.430Z,24.40
2019-01-21T03:33:28.420Z,24.70
2019-01-21T03:34:28.399Z,25.40
2019-01-21T03:35:28.389Z,25.60
2019-01-21T03:36:28.383Z,25.40
2019-01-21T03:37:28.353Z,24.70
2019-01-21T03:38:28.340Z,25.10
2019-01-21T03:39:28.323Z,24.20
2019-01-21T03:40:28.313Z,25.40
2019-01-21T03:41:28.300Z,25.40
2019-01-21T03:42:28.286Z,26.30
2019-01-21T03:43:28.271Z,25.30
2019-01-21T03:44:28.255Z,24.90
2019-01-21T03:45:28.243Z,25.90
2019-01-21T03:46:28.230Z,25.50
2019-01-21T03:47:28.215Z,25.60
2019-01-21T03:48:28.201Z,25.60
2019-01-21T03:49:28.186Z,26.40
2019-01-21T03:50:28.209Z,26.60
2019-01-21T03:51:28.166Z,27.00
2019-01-21T03:52:28.146Z,27.40
2019-01-21T03:53:28.131Z,28.10
2019-01-21T03:54:28.119Z,27.50
2019-01-21T03:55:28.103Z,27.50
2019-01-21T03:56:28.091Z,27.00
2019-01-21T03:57:28.080Z,26.90
2019-01-21T03:58:28.064Z,27.00
2019-01-21T03:59:28.051Z,27.40
2019-01-21T04:00:28.040Z,27.00
2019-01-21T04:01:28.026Z,27.80
2019-01-21T04:02:28.011Z,28.50
2019-01-21T04:03:28.000Z,28.10
2019-01-21T04:04:27.982Z,27.90
2019-01-21T04:05:27.972Z,28.30
2019-01-21T04:06:27.961Z,28.80
2019-01-21T04:07:27.944Z,27.50
2019-01-21T04:08:27.935Z,27.40
2019-01-21T04:09:27.920Z,27.10
2019-01-21T04:10:27.907Z,26.90
2019-01-21T04:11:27.889Z,26.10
2019-01-21T04:12:27.876Z,26.60
2019-01-21T04:13:27.863Z,28.30
2019-01-21T04:14:27.849Z,28.70
2019-01-21T04:15:27.833Z,27.60
2019-01-21T04:16:27.825Z,26.70
2019-01-21T04:17:27.809Z,26.60
2019-01-21T04:18:27.793Z,27.50
2019-01-21T04:19:27.778Z,28.10
2019-01-21T04:20:27.769Z,27.20
2019-01-21T04:21:27.755Z,27.50
2019-01-21T04:22:27.740Z,28.30
2019-01-21T04:23:27.726Z,28.90
2019-01-21T04:24:27.713Z,30.00
2019-01-21T04:25:27.699Z,30.40
2019-01-21T04:26:27.688Z,30.10
2019-01-21T04:27:27.672Z,30.90
2019-01-21T04:28:27.659Z,29.80
2019-01-21T04:29:27.644Z,32.30
2019-01-21T04:30:27.628Z,32.40
2019-01-21T04:31:27.618Z,31.20
2019-01-21T04:32:27.605Z,32.20
2019-01-21T04:33:27.591Z,32.60
2019-01-21T04:34:27.580Z,31.90
2019-01-21T04:35:27.615Z,32.20
2019-01-21T04:36:27.551Z,31.30
2019-01-21T04:37:27.536Z,32.20
2019-01-21T04:38:27.526Z,31.60
2019-01-21T04:39:27.510Z,31.90
2019-01-21T04:40:27.500Z,33.60
2019-01-21T04:41:27.486Z,32.00
2019-01-21T04:42:27.471Z,32.70
2019-01-21T04:43:27.456Z,32.30
2019-01-21T04:44:27.443Z,31.90
2019-01-21T04:45:27.426Z,33.80
2019-01-21T04:46:27.416Z,32.80
2019-01-21T04:47:27.406Z,33.70
2019-01-21T04:48:32.950Z,32.50
2019-01-21T04:49:27.375Z,34.40
2019-01-21T04:50:27.357Z,34.30
2019-01-21T04:51:27.351Z,33.20
2019-01-21T04:52:27.339Z,32.60
2019-01-21T04:53:27.322Z,33.10
2019-01-21T04:54:27.308Z,33.20
2019-01-21T04:55:27.293Z,32.80
2019-01-21T04:56:27.279Z,33.00
2019-01-21T04:57:27.264Z,32.70
2019-01-21T04:58:27.252Z,33.20
2019-01-21T04:59:27.239Z,32.50
2019-01-21T05:00:27.226Z,32.70
2019-01-21T05:01:27.210Z,34.10
2019-01-21T05:02:27.199Z,32.50
2019-01-21T05:03:27.185Z,33.60
2019-01-21T05:04:27.171Z,34.40
2019-01-21T05:05:27.158Z,32.40
2019-01-21T05:06:27.146Z,34.00
2019-01-21T05:07:27.133Z,33.40
2019-01-21T05:08:27.128Z,33.90
2019-01-21T05:09:27.102Z,31.90
2019-01-21T05:10:27.092Z,32.10
2019-01-21T05:11:27.078Z,33.60
2019-01-21T05:12:27.064Z,32.10
2019-01-21T05:13:27.050Z,32.20
2019-01-21T05:14:27.039Z,31.20
2019-01-21T05:15:27.023Z,31.40
2019-01-21T05:16:27.010Z,32.90
2019-01-21T05:17:27.002Z,31.80
2019-01-21T05:18:26.984Z,32.40
2019-01-21T05:19:26.972Z,31.80
2019-01-21T05:20:26.955Z,32.80
2019-01-21T05:21:26.942Z,34.20
2019-01-21T05:22:26.928Z,33.30
2019-01-21T05:23:26.921Z,34.10
2019-01-21T05:24:26.902Z,33.60
2019-01-21T05:25:26.892Z,34.80
2019-01-21T05:26:26.878Z,34.30
2019-01-21T05:27:26.864Z,34.40
2019-01-21T05:28:26.851Z,33.60
2019-01-21T05:29:26.834Z,35.00
2019-01-21T05:30:26.821Z,35.50
2019-01-21T05:31:26.810Z,34.40
2019-01-21T05:32:26.796Z,34.70
2019-01-21T05:33:26.781Z,34.20
2019-01-21T05:34:26.767Z,35.30
2019-01-21T05:35:26.758Z,33.50
2019-01-21T05:36:26.742Z,34.70
2019-01-21T05:37:26.724Z,35.20
2019-01-21T05:38:26.714Z,35.90
2019-01-21T05:39:26.713Z,35.00
2019-01-21T05:40:26.692Z,35.00
2019-01-21T05:41:26.679Z,35.60
2019-01-21T05:42:26.661Z,35.30
2019-01-21T05:43:26.646Z,35.90
2019-01-21T05:44:26.632Z,34.60
2019-01-21T05:45:26.620Z,36.10
2019-01-21T05:46:26.606Z,34.40
2019-01-21T05:47:26.592Z,34.60
2019-01-21T05:48:26.579Z,35.70
2019-01-21T05:49:28.344Z,35.80
2019-01-21T05:50:26.554Z,34.60
2019-01-21T05:51:26.539Z,35.60
2019-01-21T05:52:26.530Z,34.60
2019-01-21T05:53:26.514Z,35.80
2019-01-21T05:54:26.509Z,35.10
2019-01-21T05:55:26.487Z,35.70
2019-01-21T05:56:26.471Z,35.60
2019-01-21T05:57:26.459Z,35.80
2019-01-21T05:58:26.446Z,36.90
2019-01-21T05:59:26.432Z,36.90
2019-01-21T06:00:26.418Z,36.40
2019-01-21T06:01:26.405Z,37.20
2019-01-21T06:02:26.392Z,36.10
2019-01-21T06:03:26.383Z,36.40
2019-01-21T06:04:26.367Z,35.00
2019-01-21T06:05:26.356Z,35.70
2019-01-21T06:06:26.338Z,36.60
2019-01-21T06:07:26.327Z,36.50
2019-01-21T06:08:26.311Z,37.30
2019-01-21T06:09:26.299Z,37.00
2019-01-21T06:10:26.286Z,36.90
2019-01-21T06:11:26.271Z,35.60
2019-01-21T06:12:26.257Z,34.80
2019-01-21T06:13:26.244Z,36.40
2019-01-21T06:14:26.233Z,36.50
2019-01-21T06:15:26.218Z,35.40
2019-01-21T06:16:26.203Z,34.20
2019-01-21T06:17:26.191Z,36.60
2019-01-21T06:18:26.178Z,35.00
2019-01-21T06:19:26.165Z,35.40
2019-01-21T06:20:26.150Z,35.60
2019-01-21T06:21:26.137Z,35.70
2019-01-21T06:22:26.127Z,34.50
2019-01-21T06:23:26.113Z,35.60
2019-01-21T06:24:26.096Z,34.70
2019-01-21T06:25:26.083Z,35.00
2019-01-21T06:26:26.069Z,36.30
2019-01-21T06:27:26.063Z,36.20
2019-01-21T06:28:26.039Z,37.10
2019-01-21T06:29:26.029Z,36.60
2019-01-21T06:30:26.014Z,36.50
2019-01-21T06:31:26.002Z,37.90
2019-01-21T06:32:25.990Z,38.40
2019-01-21T06:33:25.975Z,36.50
2019-01-21T06:34:25.960Z,37.50
2019-01-21T06:35:25.950Z,36.70
2019-01-21T06:36:25.934Z,35.00
2019-01-21T06:37:25.922Z,38.30
2019-01-21T06:38:25.910Z,37.90
2019-01-21T06:39:25.898Z,36.40
2019-01-21T06:40:25.881Z,38.10
2019-01-21T06:41:25.866Z,37.20
2019-01-21T06:42:25.854Z,36.70
2019-01-21T06:43:25.840Z,37.30
2019-01-21T06:44:25.826Z,36.40
2019-01-21T06:45:25.816Z,35.00
2019-01-21T06:46:25.803Z,34.60
2019-01-21T06:47:25.788Z,33.80
2019-01-21T06:48:25.774Z,33.00
2019-01-21T06:49:25.761Z,33.00
2019-01-21T06:50:25.748Z,31.70
2019-01-21T06:51:25.733Z,30.90
2019-01-21T06:52:25.720Z,31.70
2019-01-21T06:53:25.710Z,31.20
2019-01-21T06:54:25.692Z,31.60
2019-01-21T06:55:25.680Z,31.40
2019-01-21T06:56:25.666Z,32.10
2019-01-21T06:57:25.651Z,31.00
2019-01-21T06:58:25.644Z,31.80
2019-01-21T06:59:25.626Z,32.50
2019-01-21T07:00:25.613Z,33.40
2019-01-21T07:01:25.597Z,32.60
2019-01-21T07:03:25.577Z,33.80
2019-01-21T07:04:25.557Z,34.00
2019-01-21T07:05:25.544Z,34.20
2019-01-21T07:06:25.531Z,36.10
2019-01-21T07:07:26.008Z,36.40
2019-01-21T07:08:25.502Z,37.10
2019-01-21T07:09:25.490Z,36.80
2019-01-21T07:10:25.478Z,37.10
2019-01-21T07:11:25.463Z,37.70
2019-01-21T07:12:25.451Z,37.30
2019-01-21T07:13:25.465Z,37.50
2019-01-21T07:14:25.419Z,36.40
2019-01-21T07:15:25.409Z,37.30
2019-01-21T07:16:25.397Z,38.10
2019-01-21T07:17:25.381Z,37.40
2019-01-21T07:18:26.112Z,38.10
2019-01-21T07:19:25.352Z,38.50
2019-01-21T07:20:25.343Z,38.60
2019-01-21T07:21:25.328Z,38.70
2019-01-21T07:22:25.313Z,40.50
2019-01-21T07:23:25.301Z,39.40
2019-01-21T07:24:25.292Z,39.20
2019-01-21T07:25:25.275Z,37.60
2019-01-21T07:26:25.260Z,37.20
2019-01-21T07:27:25.246Z,36.90
2019-01-21T07:28:25.234Z,38.60
2019-01-21T07:29:25.221Z,38.70
2019-01-21T07:30:25.207Z,39.80
2019-01-21T07:31:25.192Z,39.00
2019-01-21T07:32:25.180Z,39.20
2019-01-21T07:33:25.166Z,40.20
2019-01-21T07:34:25.153Z,39.90
2019-01-21T07:35:25.152Z,39.10
2019-01-21T07:36:25.134Z,39.50
2019-01-21T07:37:25.114Z,39.10
2019-01-21T07:38:25.101Z,40.10
2019-01-21T07:39:25.086Z,39.10
2019-01-21T07:40:25.071Z,38.40
2019-01-21T07:41:25.062Z,39.30
2019-01-21T07:42:25.053Z,37.90
2019-01-21T07:43:25.035Z,38.60
2019-01-21T07:44:25.019Z,40.10
2019-01-21T07:45:25.009Z,39.90
2019-01-21T07:46:24.993Z,39.10
2019-01-21T07:47:24.976Z,39.90
2019-01-21T07:48:24.965Z,39.70
2019-01-21T07:49:24.951Z,39.90
2019-01-21T07:50:24.941Z,38.40
2019-01-21T07:51:24.926Z,38.50
2019-01-21T07:52:24.912Z,39.30
2019-01-21T07:53:24.900Z,38.40
2019-01-21T07:54:24.885Z,38.70
2019-01-21T07:55:24.871Z,38.90
2019-01-21T07:56:24.863Z,39.20
2019-01-21T07:57:24.848Z,39.80
2019-01-21T07:58:24.838Z,40.20
2019-01-21T07:59:24.819Z,39.90
2019-01-21T08:00:24.803Z,40.00
2019-01-21T08:01:24.793Z,39.10
2019-01-21T08:02:24.783Z,38.70
2019-01-21T08:03:24.767Z,38.70
2019-01-21T08:04:24.751Z,37.70
2019-01-21T08:05:24.738Z,36.90
2019-01-21T08:06:24.728Z,37.00
2019-01-21T08:07:24.712Z,34.60
2019-01-21T08:08:24.698Z,34.80
2019-01-21T08:09:24.685Z,35.50
2019-01-21T08:10:24.673Z,34.80
2019-01-21T08:11:24.672Z,34.00
2019-01-21T08:12:24.645Z,34.10
2019-01-21T08:13:24.632Z,35.60
2019-01-21T08:14:24.619Z,34.30
2019-01-21T08:15:26.306Z,34.10
2019-01-21T08:16:24.597Z,34.90
2019-01-21T08:17:24.579Z,36.20
2019-01-21T08:18:24.572Z,35.30
2019-01-21T08:19:24.604Z,35.00
2019-01-21T08:20:24.576Z,35.50
2019-01-21T08:21:24.526Z,35.00
2019-01-21T08:22:24.514Z,36.10
2019-01-21T08:23:24.500Z,35.40
2019-01-21T08:24:24.488Z,35.50
2019-01-21T08:25:24.475Z,36.10
2019-01-21T08:26:24.461Z,36.00
2019-01-21T08:27:24.447Z,34.80
2019-01-21T08:28:24.435Z,35.20
2019-01-21T08:29:24.421Z,36.20
2019-01-21T08:30:24.408Z,36.80
2019-01-21T08:31:24.395Z,34.70
2019-01-21T08:32:24.383Z,36.30
2019-01-21T08:33:24.371Z,34.20
2019-01-21T08:34:24.360Z,34.90
2019-01-21T08:35:24.345Z,35.40
2019-01-21T08:36:24.331Z,35.10
2019-01-21T08:37:24.317Z,34.80
2019-01-21T08:38:24.307Z,35.10
2019-01-21T08:39:24.295Z,35.40
2019-01-21T08:40:24.279Z,34.50
2019-01-21T08:41:24.264Z,34.70
2019-01-21T08:42:24.253Z,34.80
2019-01-21T08:43:24.237Z,34.90
2019-01-21T08:44:24.225Z,35.00
2019-01-21T08:45:24.213Z,34.30
2019-01-21T08:46:24.200Z,35.30
2019-01-21T08:47:24.188Z,34.60
2019-01-21T08:48:24.175Z,34.50
2019-01-21T08:49:24.160Z,34.30
2019-01-21T08:50:24.146Z,34.50
2019-01-21T08:51:24.133Z,35.00
2019-01-21T08:52:24.124Z,34.70
2019-01-21T08:53:24.108Z,34.70
2019-01-21T08:54:24.096Z,34.80
2019-01-21T08:55:24.083Z,35.20
2019-01-21T08:56:24.071Z,34.60
2019-01-21T08:57:24.056Z,35.60
2019-01-21T08:58:24.042Z,35.80
2019-01-21T08:59:24.031Z,35.30
2019-01-21T09:00:24.018Z,35.40
2019-01-21T09:01:24.014Z,35.20
2019-01-21T09:02:23.993Z,35.50
2019-01-21T09:03:23.981Z,34.40
2019-01-21T09:04:23.967Z,35.80
2019-01-21T09:05:23.953Z,36.00
2019-01-21T09:06:23.937Z,35.40
2019-01-21T09:07:23.960Z,37.00
2019-01-21T09:08:23.914Z,35.50
2019-01-21T09:09:23.901Z,35.20
2019-01-21T09:10:23.890Z,35.60
2019-01-21T09:11:23.874Z,34.70
2019-01-21T09:12:23.862Z,34.80
2019-01-21T09:13:23.858Z,34.30
2019-01-21T09:14:23.841Z,34.70
2019-01-21T09:15:23.830Z,34.40
2019-01-21T09:16:23.816Z,33.00
2019-01-21T09:17:23.800Z,32.40
2019-01-21T09:18:23.787Z,32.50
2019-01-21T09:19:23.774Z,32.90
2019-01-21T09:20:23.760Z,32.10
2019-01-21T09:21:23.748Z,32.70
2019-01-21T09:22:23.737Z,32.80
2019-01-21T09:23:23.729Z,33.40
2019-01-21T09:24:23.711Z,34.00
2019-01-21T09:25:23.700Z,33.60
2019-01-21T09:26:23.684Z,32.80
2019-01-21T09:27:23.672Z,33.10
2019-01-21T09:28:23.656Z,33.90
2019-01-21T09:29:23.645Z,34.20
2019-01-21T09:30:23.631Z,33.50
2019-01-21T09:31:23.620Z,33.00
2019-01-21T09:32:23.608Z,34.10
2019-01-21T09:33:23.594Z,34.10
2019-01-21T09:34:23.581Z,32.50
2019-01-21T09:35:23.568Z,34.10
2019-01-21T09:36:23.558Z,33.60
2019-01-21T09:37:23.591Z,33.40
2019-01-21T09:38:23.531Z,33.90
2019-01-21T09:39:23.518Z,33.00
2019-01-21T09:40:23.506Z,32.20
2019-01-21T09:41:23.493Z,32.40
2019-01-21T09:42:23.488Z,32.50
2019-01-21T09:43:23.469Z,32.70
2019-01-21T09:44:23.456Z,33.40
2019-01-21T09:45:23.443Z,32.70
2019-01-21T09:46:23.425Z,33.20
2019-01-21T09:47:23.416Z,33.40
2019-01-21T09:48:23.401Z,34.80
2019-01-21T09:49:23.385Z,33.60
2019-01-21T09:50:23.376Z,34.50
2019-01-21T09:51:23.363Z,34.50
2019-01-21T09:52:23.354Z,33.90
2019-01-21T09:53:23.343Z,33.60
2019-01-21T09:54:23.326Z,34.30
2019-01-21T09:55:23.385Z,35.20
2019-01-21T09:56:23.300Z,35.40
2019-01-21T09:57:23.288Z,35.30
2019-01-21T09:58:23.277Z,35.40
2019-01-21T09:59:23.263Z,35.60
2019-01-21T10:00:23.250Z,35.00
2019-01-21T10:01:23.398Z,34.10
2019-01-21T10:02:23.227Z,35.70
2019-01-21T10:03:23.211Z,35.20
2019-01-21T10:04:23.198Z,35.60
2019-01-21T10:05:23.191Z,36.00
2019-01-21T10:06:23.176Z,35.10
2019-01-21T10:07:23.164Z,35.70
2019-01-21T10:08:23.150Z,34.70
2019-01-21T10:09:23.134Z,34.90
2019-01-21T10:10:23.129Z,34.60
2019-01-21T10:11:23.111Z,34.80
2019-01-21T10:12:23.101Z,35.10
2019-01-21T10:13:23.088Z,35.30
2019-01-21T10:14:23.079Z,35.50
2019-01-21T10:15:23.063Z,35.80
2019-01-21T10:16:23.102Z,35.10
2019-01-21T10:17:23.036Z,35.50
2019-01-21T10:18:23.024Z,35.10
2019-01-21T10:19:23.009Z,35.20
2019-01-21T10:20:23.000Z,35.50
2019-01-21T10:21:22.983Z,35.30
2019-01-21T10:22:22.976Z,35.00
2019-01-21T10:23:22.960Z,35.80
2019-01-21T10:24:22.952Z,34.30
2019-01-21T10:25:22.937Z,35.10
2019-01-21T10:26:22.926Z,34.30
2019-01-21T10:27:22.915Z,35.20
2019-01-21T10:28:22.902Z,34.60
2019-01-21T10:29:22.906Z,34.70
2019-01-21T10:30:22.877Z,33.40
2019-01-21T10:31:22.862Z,34.30
2019-01-21T10:32:22.852Z,33.30
2019-01-21T10:33:22.834Z,34.10
2019-01-21T10:34:23.773Z,34.40
2019-01-21T10:35:22.821Z,33.40
2019-01-21T10:36:22.801Z,33.80
2019-01-21T10:37:22.789Z,34.00
2019-01-21T10:38:22.822Z,34.50
2019-01-21T10:39:22.766Z,34.10
2019-01-21T10:40:22.751Z,33.90
2019-01-21T10:41:22.744Z,34.10
2019-01-21T10:42:22.735Z,34.60
2019-01-21T10:43:22.714Z,35.40
2019-01-21T10:44:22.704Z,35.10
2019-01-21T10:45:23.200Z,35.10
2019-01-21T10:46:22.681Z,34.90
2019-01-21T10:47:22.670Z,35.00
2019-01-21T10:48:22.655Z,35.40
2019-01-21T10:49:22.646Z,36.20
2019-01-21T10:50:22.633Z,36.50
2019-01-21T10:51:22.619Z,36.30
2019-01-21T10:52:22.607Z,38.30
2019-01-21T10:53:22.596Z,38.40
2019-01-21T10:54:22.584Z,37.30
2019-01-21T10:55:22.568Z,36.70
2019-01-21T10:56:22.564Z,38.70
2019-01-21T10:57:22.546Z,38.60
2019-01-21T10:58:22.533Z,36.60
2019-01-21T10:59:22.519Z,37.50
2019-01-21T11:00:22.509Z,36.80
2019-01-21T11:01:22.501Z,36.60
2019-01-21T11:02:22.485Z,36.30
2019-01-21T11:03:22.473Z,35.30
2019-01-21T11:04:22.464Z,37.00
2019-01-21T11:05:22.453Z,36.90
2019-01-21T11:06:22.435Z,37.40
2019-01-21T11:07:22.428Z,37.40
2019-01-21T11:08:22.412Z,38.60
2019-01-21T11:09:26.614Z,39.50
2019-01-21T11:10:22.388Z,39.90
2019-01-21T11:11:22.375Z,40.20
2019-01-21T11:12:22.363Z,41.10
2019-01-21T11:13:22.353Z,39.90
2019-01-21T11:14:22.338Z,39.70
2019-01-21T11:15:22.329Z,40.10
2019-01-21T11:16:22.319Z,40.00
2019-01-21T11:17:22.303Z,40.30
2019-01-21T11:18:22.293Z,38.40
2019-01-21T11:19:22.278Z,37.90
2019-01-21T11:20:22.269Z,39.20
2019-01-21T11:21:22.256Z,39.80
2019-01-21T11:22:22.243Z,39.10
2019-01-21T11:23:22.230Z,40.00
2019-01-21T11:24:22.219Z,39.80
2019-01-21T11:25:22.208Z,40.30
2019-01-21T11:26:22.196Z,40.50
2019-01-21T11:27:22.183Z,40.90
2019-01-21T11:28:22.171Z,39.90
2019-01-21T11:29:22.157Z,41.50
2019-01-21T11:30:22.151Z,40.00
2019-01-21T11:31:23.691Z,39.90
2019-01-21T11:32:22.124Z,42.20
2019-01-21T11:33:22.113Z,41.30
2019-01-21T11:34:22.100Z,42.50
2019-01-21T11:35:22.088Z,42.10
2019-01-21T11:36:22.075Z,43.60
2019-01-21T11:37:22.065Z,43.10
2019-01-21T11:38:22.055Z,43.10
2019-01-21T11:39:22.042Z,43.40
2019-01-21T11:40:22.027Z,41.60
2019-01-21T11:41:22.014Z,41.60
2019-01-21T11:42:22.002Z,41.40
2019-01-21T11:43:21.987Z,42.00
2019-01-21T11:44:21.980Z,42.40
2019-01-21T11:45:21.965Z,40.50
2019-01-21T11:46:21.954Z,41.50
2019-01-21T11:47:21.939Z,41.50
2019-01-21T11:48:21.932Z,39.80
2019-01-21T11:49:21.913Z,39.70
2019-01-21T11:50:21.911Z,39.40
2019-01-21T11:51:21.890Z,39.60
2019-01-21T11:52:21.874Z,40.10
2019-01-21T11:53:21.868Z,39.60
2019-01-21T11:54:21.860Z,38.70
2019-01-21T11:55:21.842Z,38.90
2019-01-21T11:56:21.870Z,38.90
2019-01-21T11:57:21.820Z,38.20
2019-01-21T11:58:21.803Z,36.70
2019-01-21T11:59:21.791Z,36.50
2019-01-21T12:00:21.783Z,37.10
2019-01-21T12:01:21.769Z,36.00
2019-01-21T12:02:21.756Z,37.10
2019-01-21T12:03:23.591Z,37.00
2019-01-21T12:04:21.730Z,36.80
2019-01-21T12:05:21.718Z,37.20
2019-01-21T12:06:21.707Z,35.70
2019-01-21T12:07:21.694Z,34.70
2019-01-21T12:08:21.682Z,33.80
2019-01-21T12:09:21.669Z,34.00
2019-01-21T12:10:21.655Z,34.60
2019-01-21T12:11:21.646Z,33.50
2019-01-21T12:12:21.634Z,33.40
2019-01-21T12:13:21.626Z,33.50
2019-01-21T12:14:21.609Z,33.80
2019-01-21T12:15:21.596Z,33.10
2019-01-21T12:16:21.582Z,33.20
2019-01-21T12:17:21.573Z,34.40
2019-01-21T12:18:21.564Z,32.70
2019-01-21T12:19:21.546Z,33.20
2019-01-21T12:20:21.535Z,34.60
2019-01-21T12:21:21.525Z,33.40
2019-01-21T12:22:21.513Z,33.10
2019-01-21T12:23:21.497Z,33.20
2019-01-21T12:24:21.487Z,33.70
2019-01-21T12:25:21.478Z,32.10
2019-01-21T12:26:21.462Z,30.90
2019-01-21T12:27:21.449Z,31.60
2019-01-21T12:28:21.436Z,32.30
2019-01-21T12:29:21.427Z,32.00
2019-01-21T12:30:21.410Z,30.80
2019-01-21T12:31:21.397Z,31.60
2019-01-21T12:32:21.391Z,31.90
2019-01-21T12:33:21.381Z,31.80
2019-01-21T12:34:21.365Z,32.70
2019-01-21T12:35:21.352Z,31.10
2019-01-21T12:36:21.340Z,32.60
2019-01-21T12:37:21.328Z,31.70
2019-01-21T12:38:21.320Z,31.90
2019-01-21T12:39:22.015Z,32.70
2019-01-21T12:40:21.874Z,32.10
2019-01-21T12:41:21.758Z,32.60
2019-01-21T12:42:21.262Z,32.30
2019-01-21T12:43:21.262Z,32.00
2019-01-21T12:44:21.247Z,32.40
2019-01-21T12:45:21.243Z,31.70
2019-01-21T12:46:21.227Z,32.00
2019-01-21T12:47:21.206Z,32.30
2019-01-21T12:48:21.192Z,32.20
2019-01-21T12:49:21.184Z,31.40
2019-01-21T12:50:24.089Z,32.30
2019-01-21T12:51:21.194Z,31.70
2019-01-21T12:52:21.144Z,31.10
2019-01-21T12:53:21.141Z,31.50